Portada
METAR-TAF:

METAR-TAF

Aeroports :

Katima Mulilo, Namíbia

latitud: 17-38-04S, longitud: 024-10-36E, altitud: 985 m

Observació

L'informe es va fer fa 50 minuts, a les 16:00 UTC
Vent 4 kt del Est
Temperatura 30°C
Humitat 49%
Pressió 1014 hPa

METAR: FYKM 311600Z AUTO 08004KT //// // ////// 30/18 Q1014

Hora: 18:50 (16:50 UTC)

Pronòstic

L'informe es va fer fa 2 hores i 50 minuts, a les 14:00 UTC
Pronòstic vàlid del 31 a les 15 UTC al 01 a les 00 UTC
Vent 3 kt del Est/Sud-Est
Visibilitat 10 km o més
sense núvols per sota de 1500 mi sense presència de cumulonimbus.

TAF: FYKM 311400Z 3115/0100 12003KT CAVOK

Observacions i pronòstics meteorològics de més de 4000 aeroports (METAR i TAF).

Les estacions disponibles són els punts grocs i vermells al mapa.

Posi el ratolí al punt desitjat per veure el nom de l'estació.

Feu clic per veure les observacions i els pronòstics meteorològics.

Per canviar el mapa: feu clic els botons verds amb una creu de color negre per apropar; al botó verd amb un guió per allunyar la imatge; o en les fletxes verdes per a mapes adjacents.


METAR-TAF: